Time;durP1;ratioP1;P1;durP2;ratioP2;P2;SDS_P1;SDS_P2;PMS_P1;PMS_P2;Temp;Humidity;BMP_temperature;BMP_pressure;BME280_temperature;BME280_humidity;BME280_pressure;Samples;Min_cycle;Max_cycle;Signal;HPM_P1;HPM_P2
2022/10/04 00:00:28;;;;;;;;;;;;;;;14.51;59.44;99898.56;5098030;28;19924;-73
2022/10/04 00:02:58;;;;;;;;;;;;;;;14.40;59.36;99899.81;5099604;28;19912;-73
2022/10/04 00:05:24;;;;;;;;;;;;;;;14.46;59.15;99892.97;5096454;28;19923;-73
2022/10/04 00:07:53;;;;;;;;;;;;;;;14.34;59.76;99887.22;5099897;28;19912;-73
2022/10/04 00:10:20;;;;;;;;;;;;;;;14.38;59.49;99886.69;5102095;28;19912;-73
2022/10/04 00:12:47;;;;;;;;;;;;;;;14.28;59.36;99885.28;5101004;28;19916;-73
2022/10/04 00:15:17;;;;;;;;;;;;;;;14.35;59.48;99887.03;5102406;28;19916;-73
2022/10/04 00:17:43;;;;;;;;;;;;;;;14.30;59.57;99878.78;5102214;28;19908;-73
2022/10/04 00:20:28;;;;;;;;;;;;;;;14.46;59.01;99880.47;5099710;28;20104;-73
2022/10/04 00:23:32;;;;;;;;;;;;;;;14.36;59.16;99883.38;5101094;28;19912;-73
2022/10/04 00:25:58;;;;;;;;;;;;;;;14.26;59.73;99889.97;5075504;28;20206;-73
2022/10/04 00:28:24;;;;;;;;;;;;;;;14.21;59.90;99879.03;5076244;28;19948;-73
2022/10/04 00:31:08;;;;;;;;;;;;;;;14.11;60.30;99886.47;5079864;28;19923;-73
2022/10/04 00:33:35;;;;;;;;;;;;;;;14.12;60.55;99885.44;5081666;28;20013;-73
2022/10/04 00:36:20;;;;;;;;;;;;;;;14.05;60.86;99882.69;5099600;28;19920;-73
2022/10/04 00:39:00;;;;;;;;;;;;;;;13.95;61.28;99892.78;5102640;28;19950;-73
2022/10/04 00:41:26;;;;;;;;;;;;;;;14.09;61.06;99904.47;5099136;28;19994;-73
2022/10/04 00:43:52;;;;;;;;;;;;;;;14.18;60.77;99908.69;5099253;28;19912;-73
2022/10/04 00:46:22;;;;;;;;;;;;;;;14.21;60.46;99905.66;5099385;28;19967;-73
2022/10/04 00:48:52;;;;;;;;;;;;;;;14.12;60.87;99909.41;5098831;28;19975;-73
2022/10/04 00:51:37;;;;;;;;;;;;;;;14.15;61.06;99907.22;5098917;28;19943;-73
2022/10/04 00:54:06;;;;;;;;;;;;;;;14.20;60.87;99912.00;5100697;28;19912;-73
2022/10/04 00:56:31;;;;;;;;;;;;;;;14.19;61.04;99910.34;5101195;28;20224;-73
2022/10/04 00:59:03;;;;;;;;;;;;;;;14.10;61.41;99906.13;5099579;28;19978;-73
2022/10/04 01:01:30;;;;;;;;;;;;;;;14.13;61.45;99903.09;5098660;28;19959;-74
2022/10/04 01:03:57;;;;;;;;;;;;;;;14.19;61.38;99905.03;5099675;28;19920;-73
2022/10/04 01:06:22;;;;;;;;;;;;;;;14.29;61.06;99905.59;5098451;28;19923;-73
2022/10/04 01:08:53;;;;;;;;;;;;;;;14.07;61.58;99909.97;5103230;28;19971;-73
2022/10/04 01:11:22;;;;;;;;;;;;;;;14.11;61.65;99911.25;5099852;28;19958;-73
2022/10/04 01:13:55;;;;;;;;;;;;;;;14.17;61.48;99909.69;5099501;28;19920;-73
2022/10/04 01:16:22;;;;;;;;;;;;;;;14.14;61.51;99908.22;5114036;28;19973;-73
2022/10/04 01:18:47;;;;;;;;;;;;;;;13.98;61.89;99905.72;5100312;28;19919;-73
2022/10/04 01:21:15;;;;;;;;;;;;;;;13.90;62.41;99908.44;5103012;28;20126;-73
2022/10/04 01:23:43;;;;;;;;;;;;;;;14.00;62.22;99915.19;5103029;28;19925;-73
2022/10/04 01:26:33;;;;;;;;;;;;;;;13.82;62.94;99920.00;5105740;28;19916;-73
2022/10/04 01:29:09;;;;;;;;;;;;;;;13.85;62.87;99919.63;5104669;28;21166;-73
2022/10/04 01:31:40;;;;;;;;;;;;;;;13.87;62.81;99922.13;5102333;28;19916;-73
2022/10/04 01:34:06;;;;;;;;;;;;;;;13.95;62.83;99927.38;5098851;28;19947;-73
2022/10/04 01:36:32;;;;;;;;;;;;;;;13.90;62.99;99924.44;5103112;28;19923;-73
2022/10/04 01:38:58;;;;;;;;;;;;;;;13.86;63.02;99929.28;5102751;28;19919;-73
2022/10/04 01:41:28;;;;;;;;;;;;;;;13.83;63.42;99931.47;5103018;28;19915;-73
2022/10/04 01:43:57;;;;;;;;;;;;;;;13.85;63.50;99926.78;5102512;28;19951;-73
2022/10/04 01:46:25;;;;;;;;;;;;;;;14.12;62.61;99923.56;5102592;28;19985;-73
2022/10/04 01:48:53;;;;;;;;;;;;;;;13.98;63.09;99921.69;5104268;28;19934;-73
2022/10/04 01:51:21;;;;;;;;;;;;;;;14.06;62.88;99933.09;5104549;28;20140;-73
2022/10/04 01:53:50;;;;;;;;;;;;;;;13.92;63.24;99931.22;5102793;28;19931;-73
2022/10/04 01:56:20;;;;;;;;;;;;;;;14.02;63.05;99930.97;5103371;28;20209;-73
2022/10/04 01:58:57;;;;;;;;;;;;;;;14.18;62.46;99924.69;5104944;28;19915;-73
2022/10/04 02:01:32;;;;;;;;;;;;;;;13.95;63.12;99930.03;5102353;28;19991;-73
2022/10/04 02:04:04;;;;;;;;;;;;;;;13.96;63.15;99927.19;5100526;28;19973;-73
2022/10/04 02:06:36;;;;;;;;;;;;;;;14.07;62.70;99932.09;5103020;28;19920;-73
2022/10/04 02:09:06;;;;;;;;;;;;;;;13.87;63.43;99917.63;5102767;28;20113;-73
2022/10/04 02:11:33;;;;;;;;;;;;;;;13.79;64.25;99927.50;5101644;28;20274;-73
2022/10/04 02:13:59;;;;;;;;;;;;;;;13.81;63.90;99925.50;5103948;28;20187;-73
2022/10/04 02:16:25;;;;;;;;;;;;;;;13.84;64.01;99933.13;5104104;28;19912;-73
2022/10/04 02:18:51;;;;;;;;;;;;;;;13.71;64.44;99931.88;5101676;28;20006;-73
2022/10/04 02:21:17;;;;;;;;;;;;;;;13.65;64.72;99926.44;5104379;28;19912;-73
2022/10/04 02:23:43;;;;;;;;;;;;;;;13.71;64.59;99925.72;5103731;28;19919;-73
2022/10/04 02:26:09;;;;;;;;;;;;;;;13.82;63.84;99935.97;5102756;28;19916;-73
2022/10/04 02:28:36;;;;;;;;;;;;;;;13.81;63.97;99936.13;5103421;28;19928;-73
2022/10/04 02:33:48;;;;;;;;;;;;;;;13.91;63.47;99945.53;5101456;28;20884;-73
2022/10/04 02:36:14;;;;;;;;;;;;;;;13.74;64.36;99942.19;5101411;28;19920;-73
2022/10/04 02:38:43;;;;;;;;;;;;;;;13.64;64.72;99941.59;5117431;28;19950;-73
2022/10/04 02:41:08;;;;;;;;;;;;;;;13.57;64.83;99934.47;5100855;28;20210;-73
2022/10/04 02:43:46;;;;;;;;;;;;;;;13.67;64.50;99940.41;5102216;28;19957;-73
2022/10/04 02:46:11;;;;;;;;;;;;;;;13.92;63.68;99941.88;5102028;28;20136;-73
2022/10/04 02:48:39;;;;;;;;;;;;;;;13.88;63.92;99937.91;5101246;28;20020;-73
2022/10/04 02:51:17;;;;;;;;;;;;;;;13.69;64.51;99933.06;5100832;28;19951;-73
2022/10/04 02:54:15;;;;;;;;;;;;;;;13.74;64.39;99936.84;5099083;28;20183;-73
2022/10/04 02:56:41;;;;;;;;;;;;;;;13.43;65.46;99938.69;5088422;28;19916;-73
2022/10/04 02:59:06;;;;;;;;;;;;;;;13.52;65.06;99940.31;5103381;28;19919;-73
2022/10/04 03:01:55;;;;;;;;;;;;;;;13.65;64.52;99942.41;5103436;28;19973;-73
2022/10/04 03:04:25;;;;;;;;;;;;;;;13.68;64.26;99945.53;5089575;28;19916;-73
2022/10/04 03:06:51;;;;;;;;;;;;;;;13.66;64.51;99938.75;5100971;28;20221;-73
2022/10/04 03:09:18;;;;;;;;;;;;;;;13.68;64.24;99950.03;5100548;28;19920;-74
2022/10/04 03:11:45;;;;;;;;;;;;;;;13.49;64.79;99916.72;5100296;28;19957;-73
2022/10/04 03:14:17;;;;;;;;;;;;;;;13.62;64.67;99942.75;5101338;28;19911;-73
2022/10/04 03:16:43;;;;;;;;;;;;;;;13.55;64.76;99944.47;5101318;28;19923;-73
2022/10/04 03:19:10;;;;;;;;;;;;;;;13.47;65.23;99949.81;5103417;28;19912;-73
2022/10/04 03:21:36;;;;;;;;;;;;;;;13.66;65.01;99957.38;5117903;28;19916;-73
2022/10/04 03:24:02;;;;;;;;;;;;;;;13.59;65.17;99953.75;5104512;28;19919;-74
2022/10/04 03:26:31;;;;;;;;;;;;;;;13.62;65.06;99959.56;5102506;28;19955;-73
2022/10/04 03:28:56;;;;;;;;;;;;;;;13.60;65.32;99960.72;5100686;28;19979;-73
2022/10/04 03:31:23;;;;;;;;;;;;;;;13.53;65.49;99968.59;5101134;28;19916;-73
2022/10/04 03:33:48;;;;;;;;;;;;;;;13.40;66.12;99963.81;5099060;28;19918;-73
2022/10/04 03:36:16;;;;;;;;;;;;;;;13.51;65.48;99965.25;5097718;28;19916;-73
2022/10/04 03:38:42;;;;;;;;;;;;;;;13.53;65.54;99962.44;5100637;28;19923;-73
2022/10/04 03:41:09;;;;;;;;;;;;;;;13.45;65.60;99963.28;5099184;28;20206;-73
2022/10/04 03:43:36;;;;;;;;;;;;;;;13.51;65.58;99967.09;5101173;28;19912;-73
2022/10/04 03:46:04;;;;;;;;;;;;;;;13.39;65.44;99972.78;5099711;28;19943;-73
2022/10/04 03:48:31;;;;;;;;;;;;;;;13.41;65.28;99969.97;5099910;28;19912;-73
2022/10/04 03:50:57;;;;;;;;;;;;;;;13.51;64.81;99970.56;5100520;28;20202;-73
2022/10/04 03:53:28;;;;;;;;;;;;;;;13.49;64.80;99969.09;5101496;28;19934;-73
2022/10/04 03:55:54;;;;;;;;;;;;;;;13.58;64.52;99970.72;5095626;28;20214;-74
2022/10/04 03:58:28;;;;;;;;;;;;;;;13.49;64.34;99977.91;5100589;28;19950;-73
2022/10/04 04:00:54;;;;;;;;;;;;;;;13.56;63.92;99978.88;5098827;28;19922;-73
2022/10/04 04:03:20;;;;;;;;;;;;;;;13.55;64.35;99979.06;5099092;28;20105;-73
2022/10/04 04:05:49;;;;;;;;;;;;;;;13.71;63.60;99982.44;5115581;28;19924;-73
2022/10/04 04:08:18;;;;;;;;;;;;;;;13.49;64.55;99993.03;5099674;28;19912;-74
2022/10/04 04:10:46;;;;;;;;;;;;;;;13.65;64.14;99988.47;5100318;28;19923;-73
2022/10/04 04:13:18;;;;;;;;;;;;;;;13.63;63.93;99997.63;5100248;28;20190;-73
2022/10/04 04:15:44;;;;;;;;;;;;;;;13.57;63.88;99987.69;5097875;28;19916;-73
2022/10/04 04:18:17;;;;;;;;;;;;;;;13.60;63.91;100000.66;5099790;28;19911;-73
2022/10/04 04:20:43;;;;;;;;;;;;;;;13.72;63.20;99996.59;5099672;28;20213;-73
2022/10/04 04:23:14;;;;;;;;;;;;;;;13.69;63.11;100003.09;5099163;28;19926;-73
2022/10/04 04:25:44;;;;;;;;;;;;;;;13.58;63.44;100005.31;5096274;28;19915;-73
2022/10/04 04:28:28;;;;;;;;;;;;;;;13.68;63.56;100008.59;5100072;28;19912;-73
2022/10/04 04:31:04;;;;;;;;;;;;;;;13.56;63.30;100007.31;5099478;28;19959;-73
2022/10/04 04:33:34;;;;;;;;;;;;;;;13.51;63.22;100010.47;5100036;28;19915;-73
2022/10/04 04:36:05;;;;;;;;;;;;;;;13.41;63.92;100013.34;5098743;28;20209;-73
2022/10/04 04:38:31;;;;;;;;;;;;;;;13.46;63.34;100012.81;5096691;28;19923;-73
2022/10/04 04:41:06;;;;;;;;;;;;;;;13.61;62.87;100011.13;5098630;28;19916;-73
2022/10/04 04:43:31;;;;;;;;;;;;;;;13.71;62.48;100022.38;5101927;28;19978;-73
2022/10/04 04:45:58;;;;;;;;;;;;;;;13.71;61.66;100024.19;5100413;28;19916;-73
2022/10/04 04:48:23;;;;;;;;;;;;;;;13.82;61.44;100022.97;5099457;28;20297;-73
2022/10/04 04:50:52;;;;;;;;;;;;;;;13.70;61.92;100031.34;5099185;28;19932;-73
2022/10/04 04:53:25;;;;;;;;;;;;;;;13.72;61.49;100032.00;5098952;28;19927;-73
2022/10/04 04:55:55;;;;;;;;;;;;;;;13.77;61.58;100026.16;5112550;28;19916;-73
2022/10/04 04:58:23;;;;;;;;;;;;;;;14.03;60.92;100036.47;5101632;28;19975;-74
2022/10/04 05:00:53;;;;;;;;;;;;;;;13.82;61.40;100045.09;5099685;28;19919;-73
2022/10/04 05:03:18;;;;;;;;;;;;;;;13.81;61.66;100045.25;5099105;28;20147;-73
2022/10/04 05:05:46;;;;;;;;;;;;;;;13.93;61.37;100036.69;5100958;28;19916;-73
2022/10/04 05:08:20;;;;;;;;;;;;;;;14.10;60.49;100034.75;5100548;28;20124;-73
2022/10/04 05:11:05;;;;;;;;;;;;;;;14.12;60.48;100032.75;5099124;28;19920;-73
2022/10/04 05:14:05;;;;;;;;;;;;;;;14.17;60.37;100040.19;5099727;28;19912;-73
2022/10/04 05:16:42;;;;;;;;;;;;;;;14.33;59.96;100035.56;5076120;28;19916;-73
2022/10/04 05:19:12;;;;;;;;;;;;;;;14.32;59.54;100027.75;5097210;28;20083;-73
2022/10/04 05:21:41;;;;;;;;;;;;;;;14.32;59.19;100031.25;5101131;28;19958;-73
2022/10/04 05:24:17;;;;;;;;;;;;;;;14.42;59.25;100038.16;5099618;28;19912;-73
2022/10/04 05:26:43;;;;;;;;;;;;;;;14.56;58.88;100040.06;5099310;28;20090;-73
2022/10/04 05:29:16;;;;;;;;;;;;;;;14.58;57.95;100038.09;5098919;28;19922;-73
2022/10/04 05:31:41;;;;;;;;;;;;;;;14.61;58.13;100048.38;5098670;28;19916;-74
2022/10/04 05:34:17;;;;;;;;;;;;;;;14.60;58.06;100058.22;5099564;28;19912;-73
2022/10/04 05:36:54;;;;;;;;;;;;;;;14.77;58.28;100058.88;5101610;28;19919;-73
2022/10/04 05:39:37;;;;;;;;;;;;;;;14.94;57.72;100067.56;5100292;28;19920;-73
2022/10/04 05:42:06;;;;;;;;;;;;;;;15.13;56.96;100069.69;5099056;28;19947;-73
2022/10/04 05:44:35;;;;;;;;;;;;;;;15.47;55.82;100069.13;5098199;28;19923;-73
2022/10/04 05:47:04;;;;;;;;;;;;;;;15.37;56.08;100065.91;5098244;28;20202;-73
2022/10/04 05:49:35;;;;;;;;;;;;;;;15.38;56.27;100072.06;5099015;28;20007;-73
2022/10/04 05:52:02;;;;;;;;;;;;;;;15.57;55.79;100079.50;5113398;28;20154;-73
2022/10/04 05:54:30;;;;;;;;;;;;;;;15.61;54.94;100079.00;5098351;28;19991;-73
2022/10/04 05:57:14;;;;;;;;;;;;;;;15.36;55.12;100068.75;5098933;28;19920;-74
2022/10/04 05:59:51;;;;;;;;;;;;;;;15.20;56.43;100088.44;5098778;28;19916;-73
2022/10/04 06:02:40;;;;;;;;;;;;;;;15.19;55.99;100090.28;5101159;28;19955;-73
2022/10/04 06:05:25;;;;;;;;;;;;;;;15.53;56.06;100099.56;5097889;28;20065;-73
2022/10/04 06:07:54;;;;;;;;;;;;;;;15.56;55.20;100102.69;5102096;28;19919;-73
2022/10/04 06:10:38;;;;;;;;;;;;;;;15.49;55.80;100106.28;5104326;28;19952;-73
2022/10/04 06:13:21;;;;;;;;;;;;;;;15.26;56.40;100103.72;5103439;28;20193;-73
2022/10/04 06:15:46;;;;;;;;;;;;;;;15.33;56.81;100112.63;5100267;28;19961;-73
2022/10/04 06:18:34;;;;;;;;;;;;;;;15.46;56.20;100120.84;5102598;28;19924;-73
2022/10/04 06:21:18;;;;;;;;;;;;;;;15.19;56.78;100118.78;5103980;28;19920;-73
2022/10/04 06:23:52;;;;;;;;;;;;;;;15.16;57.30;100117.31;5103480;28;19919;-73
2022/10/04 06:26:20;;;;;;;;;;;;;;;15.20;56.81;100117.78;5098892;28;19927;-73
2022/10/04 06:28:48;;;;;;;;;;;;;;;15.25;56.77;100121.56;5102662;28;19912;-73
2022/10/04 06:31:30;;;;;;;;;;;;;;;15.20;56.81;100123.13;5101239;28;21180;-73
2022/10/04 06:34:14;;;;;;;;;;;;;;;14.99;57.21;100119.31;5101226;28;19920;-73
2022/10/04 06:36:39;;;;;;;;;;;;;;;15.03;58.01;100133.13;5101208;28;20156;-73
2022/10/04 06:39:07;;;;;;;;;;;;;;;15.24;57.48;100130.56;5101693;28;20094;-73
2022/10/04 06:41:43;;;;;;;;;;;;;;;15.39;57.15;100132.44;5101554;28;20673;-73
2022/10/04 06:44:30;;;;;;;;;;;;;;;15.30;57.49;100132.50;5103928;28;19957;-73
2022/10/04 06:47:10;;;;;;;;;;;;;;;15.43;56.92;100131.03;5100937;28;20227;-73
2022/10/04 06:49:54;;;;;;;;;;;;;;;15.47;56.77;100137.66;5102210;28;19916;-73
2022/10/04 06:52:35;;;;;;;;;;;;;;;15.53;56.21;100139.59;5101865;28;20090;-73
2022/10/04 06:55:07;;;;;;;;;;;;;;;15.43;56.61;100139.06;5101724;28;19931;-73
2022/10/04 06:57:35;;;;;;;;;;;;;;;15.66;56.19;100141.69;5101052;28;19948;-73
2022/10/04 07:00:15;;;;;;;;;;;;;;;15.46;55.79;100149.34;5103510;28;19979;-73
2022/10/04 07:02:52;;;;;;;;;;;;;;;15.34;56.39;100147.16;5101512;28;19983;-73
2022/10/04 07:05:29;;;;;;;;;;;;;;;15.42;56.66;100151.56;5101428;28;19920;-73
2022/10/04 07:08:05;;;;;;;;;;;;;;;15.45;56.39;100153.88;5101023;28;20102;-74
2022/10/04 07:10:37;;;;;;;;;;;;;;;15.63;56.18;100157.06;5100376;28;20210;-73
2022/10/04 07:13:03;;;;;;;;;;;;;;;15.86;55.24;100159.63;5099776;28;19919;-73
2022/10/04 07:15:31;;;;;;;;;;;;;;;16.21;54.45;100162.50;5093371;28;20270;-74
2022/10/04 07:18:02;;;;;;;;;;;;;;;16.35;53.78;100168.81;5099951;28;20105;-73
2022/10/04 07:20:30;;;;;;;;;;;;;;;16.47;52.75;100162.78;5100336;28;19963;-74
2022/10/04 07:23:13;;;;;;;;;;;;;;;16.82;51.83;100168.31;5099453;28;19926;-73
2022/10/04 07:25:47;;;;;;;;;;;;;;;17.02;50.98;100166.66;5099741;28;19924;-73
2022/10/04 07:31:02;;;;;;;;;;;;;;;17.98;47.80;100173.06;5099377;28;19960;-73
2022/10/04 07:33:30;;;;;;;;;;;;;;;17.97;47.47;100173.25;5098875;28;19927;-73
2022/10/04 07:36:17;;;;;;;;;;;;;;;17.95;47.15;100168.09;5099141;28;20280;-73
2022/10/04 07:38:46;;;;;;;;;;;;;;;17.81;47.90;100169.91;5098703;28;19918;-73
2022/10/04 07:41:22;;;;;;;;;;;;;;;18.12;46.97;100166.72;5114510;28;19916;-73
2022/10/04 07:43:50;;;;;;;;;;;;;;;18.18;46.88;100173.13;5099232;28;19918;-74
2022/10/04 07:46:36;;;;;;;;;;;;;;;18.36;46.77;100169.91;5099811;28;20141;-74
2022/10/04 07:49:02;;;;;;;;;;;;;;;18.39;46.71;100166.81;5095191;28;19912;-74
2022/10/04 07:51:43;;;;;;;;;;;;;;;18.61;45.31;100167.47;5098876;28;19965;-74
2022/10/04 07:54:09;;;;;;;;;;;;;;;18.79;45.13;100163.22;5099853;28;19912;-74
2022/10/04 07:56:41;;;;;;;;;;;;;;;18.96;44.71;100166.34;5098818;28;19931;-74
2022/10/04 07:59:12;;;;;;;;;;;;;;;18.99;43.57;100159.72;5098036;28;19916;-74
2022/10/04 08:01:43;;;;;;;;;;;;;;;19.22;42.93;100160.13;5099223;28;20610;-74
2022/10/04 08:04:18;;;;;;;;;;;;;;;19.28;42.59;100163.84;5113971;28;19916;-74
2022/10/04 08:06:57;;;;;;;;;;;;;;;18.96;43.26;100163.66;5102310;28;19916;-75
2022/10/04 08:09:52;;;;;;;;;;;;;;;19.24;43.38;100162.59;5097203;28;19923;-74
2022/10/04 08:12:17;;;;;;;;;;;;;;;19.63;41.19;100169.78;5055496;28;20130;-74
2022/10/04 08:14:42;;;;;;;;;;;;;;;19.62;40.89;100160.09;5098435;28;19916;-74
2022/10/04 08:17:32;;;;;;;;;;;;;;;19.90;40.63;100173.25;5098075;28;19931;-74
2022/10/04 08:20:18;;;;;;;;;;;;;;;19.99;40.01;100175.50;5098053;28;19958;-74
2022/10/04 08:22:49;;;;;;;;;;;;;;;19.99;40.21;100174.66;5113810;28;19927;-74
2022/10/04 08:25:21;;;;;;;;;;;;;;;19.88;39.39;100173.47;5098032;28;19916;-73
2022/10/04 08:30:47;;;;;;;;;;;;;;;20.01;38.61;100167.22;5098146;28;19930;-74
2022/10/04 08:33:31;;;;;;;;;;;;;;;20.06;38.59;100170.09;5098474;28;19947;-74
2022/10/04 08:36:17;;;;;;;;;;;;;;;20.05;39.23;100168.44;5098050;28;19955;-74
2022/10/04 08:38:49;;;;;;;;;;;;;;;19.81;39.01;100161.09;5097822;28;20182;-74
2022/10/04 08:41:33;;;;;;;;;;;;;;;19.76;39.25;100159.00;5097025;28;19916;-74
2022/10/04 08:44:09;;;;;;;;;;;;;;;19.54;38.93;100165.69;5098421;28;19973;-74
2022/10/04 08:46:39;;;;;;;;;;;;;;;19.37;38.94;100159.91;5095478;28;19917;-74
2022/10/04 08:49:20;;;;;;;;;;;;;;;19.28;38.94;100159.28;5097941;28;20083;-74
2022/10/04 08:51:56;;;;;;;;;;;;;;;19.76;39.80;100169.75;5097860;28;19916;-73
2022/10/04 08:54:22;;;;;;;;;;;;;;;19.42;39.36;100168.97;5098673;28;19916;-74
2022/10/04 08:56:53;;;;;;;;;;;;;;;19.28;39.92;100170.03;5097651;28;20232;-74
2022/10/04 08:59:21;;;;;;;;;;;;;;;19.10;40.89;100183.25;5096487;28;19987;-73
2022/10/04 09:01:55;;;;;;;;;;;;;;;18.98;40.15;100185.75;5098666;28;19919;-74
2022/10/04 09:04:29;;;;;;;;;;;;;;;19.37;40.09;100174.16;5098056;28;19935;-73
2022/10/04 09:07:00;;;;;;;;;;;;;;;19.72;38.69;100184.66;5097044;28;19912;-74
2022/10/04 09:09:45;;;;;;;;;;;;;;;20.08;37.25;100176.91;5097732;28;19916;-74
2022/10/04 09:12:19;;;;;;;;;;;;;;;20.33;37.04;100174.31;5097723;28;19933;-73
2022/10/04 09:15:13;;;;;;;;;;;;;;;20.56;36.48;100183.72;5096986;28;19931;-74
2022/10/04 09:18:01;;;;;;;;;;;;;;;20.06;37.19;100181.66;5111996;28;19992;-74
2022/10/04 09:20:31;;;;;;;;;;;;;;;19.64;37.18;100185.69;5097200;28;20512;-74
2022/10/04 09:23:02;;;;;;;;;;;;;;;19.55;38.92;100178.91;5097638;28;19916;-74
2022/10/04 09:25:30;;;;;;;;;;;;;;;19.51;39.63;100187.56;5099180;28;19937;-73
2022/10/04 09:28:08;;;;;;;;;;;;;;;19.69;39.49;100183.22;5098709;28;19945;-74
2022/10/04 09:30:41;;;;;;;;;;;;;;;19.66;39.37;100186.31;5098173;28;19931;-74
2022/10/04 09:33:12;;;;;;;;;;;;;;;19.73;39.63;100181.75;5097627;28;20137;-74
2022/10/04 09:35:56;;;;;;;;;;;;;;;19.98;39.12;100187.28;5097074;28;19923;-74
2022/10/04 09:38:24;;;;;;;;;;;;;;;20.16;38.34;100183.06;5096956;28;19912;-74
2022/10/04 09:41:07;;;;;;;;;;;;;;;20.09;38.06;100196.53;5101591;28;20181;-74
2022/10/04 09:43:53;;;;;;;;;;;;;;;20.03;38.39;100192.84;5101574;28;20145;-74
2022/10/04 09:46:18;;;;;;;;;;;;;;;20.10;37.67;100195.50;5101000;28;19928;-74
2022/10/04 09:49:03;;;;;;;;;;;;;;;19.74;37.44;100196.00;5105066;28;19975;-74
2022/10/04 09:51:47;;;;;;;;;;;;;;;19.65;37.16;100189.22;5120868;28;19929;-74
2022/10/04 09:54:20;;;;;;;;;;;;;;;19.77;38.38;100190.25;5105050;28;19912;-73
2022/10/04 09:56:52;;;;;;;;;;;;;;;19.74;38.05;100186.09;5105206;28;19950;-73
2022/10/04 09:59:43;;;;;;;;;;;;;;;19.83;38.36;100181.34;5104878;28;19920;-74
2022/10/04 10:02:30;;;;;;;;;;;;;;;19.75;38.17;100187.75;5101428;28;19924;-73
2022/10/04 10:05:10;;;;;;;;;;;;;;;19.59;38.22;100184.69;5104654;28;19931;-74
2022/10/04 10:07:35;;;;;;;;;;;;;;;19.48;37.63;100180.75;5105159;28;20194;-73
2022/10/04 10:15:57;;;;;;;;;;;;;;;19.28;37.29;100185.31;5104664;28;19954;-74
2022/10/04 10:18:28;;;;;;;;;;;;;;;19.27;38.03;100187.19;5119659;28;19949;-74
2022/10/04 10:21:09;;;;;;;;;;;;;;;19.26;37.90;100192.75;5104688;28;19931;-74
2022/10/04 10:23:53;;;;;;;;;;;;;;;19.18;38.75;100196.47;5104459;28;19919;-73
2022/10/04 10:26:24;;;;;;;;;;;;;;;19.17;38.58;100194.00;5104544;28;19990;-73
2022/10/04 10:29:17;;;;;;;;;;;;;;;19.19;38.32;100194.63;5104462;28;20244;-74
2022/10/04 10:31:58;;;;;;;;;;;;;;;19.28;38.17;100191.50;5103136;28;19916;-73
2022/10/04 10:34:26;;;;;;;;;;;;;;;19.29;38.71;100193.16;5104451;28;19916;-74
2022/10/04 10:36:59;;;;;;;;;;;;;;;19.42;38.27;100193.16;5104172;28;19918;-73
2022/10/04 10:39:25;;;;;;;;;;;;;;;19.44;37.99;100187.56;5103166;28;20670;-74
2022/10/04 10:41:50;;;;;;;;;;;;;;;19.68;36.56;100192.31;5104293;28;20008;-74
2022/10/04 10:44:25;;;;;;;;;;;;;;;19.86;36.04;100191.66;5104243;28;19988;-74
2022/10/04 10:47:20;;;;;;;;;;;;;;;19.82;35.34;100192.31;5103794;28;19966;-73
2022/10/04 10:50:14;;;;;;;;;;;;;;;19.80;35.67;100179.06;5049236;28;19988;-74
2022/10/04 10:52:58;;;;;;;;;;;;;;;19.87;36.55;100181.75;5086404;28;19912;-74
2022/10/04 10:55:42;;;;;;;;;;;;;;;19.91;36.32;100183.78;5099534;28;20256;-74
2022/10/04 10:58:25;;;;;;;;;;;;;;;19.97;36.49;100184.81;5099816;28;20064;-74
2022/10/04 11:00:53;;;;;;;;;;;;;;;20.18;36.55;100189.88;5099485;28;19966;-73
2022/10/04 11:03:42;;;;;;;;;;;;;;;20.02;36.34;100191.19;5098495;28;20205;-74
2022/10/04 11:06:16;;;;;;;;;;;;;;;20.06;36.52;100195.09;5078576;28;19932;-74
2022/10/04 11:08:48;;;;;;;;;;;;;;;20.16;36.27;100196.53;5098686;28;19958;-74
2022/10/04 11:11:28;;;;;;;;;;;;;;;19.94;36.31;100187.91;5097960;28;19953;-74
2022/10/04 11:14:12;;;;;;;;;;;;;;;20.16;36.15;100194.66;5095233;28;19916;-74
2022/10/04 11:16:46;;;;;;;;;;;;;;;20.40;35.51;100193.13;5098131;28;19927;-74
2022/10/04 11:19:37;;;;;;;;;;;;;;;20.58;35.23;100190.53;5097583;28;19978;-74
2022/10/04 11:22:11;;;;;;;;;;;;;;;20.49;35.26;100193.69;5072036;28;19916;-74
2022/10/04 11:25:03;;;;;;;;;;;;;;;20.33;35.42;100195.00;5096562;28;19970;-74
2022/10/04 11:27:48;;;;;;;;;;;;;;;20.36;35.54;100191.88;5097250;28;19920;-74
2022/10/04 11:30:13;;;;;;;;;;;;;;;20.41;35.73;100184.00;5097689;28;19924;-74
2022/10/04 11:32:48;;;;;;;;;;;;;;;20.19;36.13;100193.41;5097857;28;20478;-74
2022/10/04 11:35:17;;;;;;;;;;;;;;;20.31;36.34;100195.19;5096555;28;19915;-74
2022/10/04 11:37:52;;;;;;;;;;;;;;;20.30;35.47;100193.56;5099178;28;19986;-74
2022/10/04 11:40:32;;;;;;;;;;;;;;;20.31;35.33;100191.69;5097519;28;19994;-74
2022/10/04 11:42:57;;;;;;;;;;;;;;;20.40;35.55;100183.19;5098688;28;19938;-74
2022/10/04 11:45:35;;;;;;;;;;;;;;;20.17;35.51;100195.47;5097681;28;20217;-74
2022/10/04 11:48:00;;;;;;;;;;;;;;;20.24;35.40;100190.91;5097083;28;19957;-74
2022/10/04 11:50:37;;;;;;;;;;;;;;;20.04;35.63;100188.28;5098649;28;19916;-74
2022/10/04 11:53:06;;;;;;;;;;;;;;;20.18;35.81;100189.88;5095095;28;19933;-74
2022/10/04 11:55:43;;;;;;;;;;;;;;;20.20;35.49;100197.75;5091013;28;19996;-75
2022/10/04 11:58:15;;;;;;;;;;;;;;;20.19;36.64;100194.22;5097353;28;20186;-74
2022/10/04 12:00:53;;;;;;;;;;;;;;;20.04;35.50;100196.34;5097860;28;19987;-74
2022/10/04 12:03:37;;;;;;;;;;;;;;;20.08;35.81;100194.91;5095582;28;19990;-74
2022/10/04 12:06:02;;;;;;;;;;;;;;;19.69;36.87;100193.13;5109351;28;20257;-74
2022/10/04 12:08:47;;;;;;;;;;;;;;;20.00;37.16;100189.75;5098676;28;19934;-74
2022/10/04 12:11:15;;;;;;;;;;;;;;;20.19;37.18;100196.09;5097624;28;20290;-74
2022/10/04 12:13:46;;;;;;;;;;;;;;;20.16;35.90;100191.16;5095800;28;19927;-74
2022/10/04 12:16:26;;;;;;;;;;;;;;;20.42;36.14;100190.22;5095335;28;19923;-74
2022/10/04 12:19:04;;;;;;;;;;;;;;;20.29;36.50;100186.53;5094650;28;20246;-75
2022/10/04 12:21:29;;;;;;;;;;;;;;;20.59;35.32;100197.56;5093765;28;19916;-74
2022/10/04 12:24:13;;;;;;;;;;;;;;;20.46;35.27;100197.63;5096401;28;19927;-74
2022/10/04 12:26:58;;;;;;;;;;;;;;;20.38;35.08;100184.41;5093008;28;19943;-74
2022/10/04 12:29:29;;;;;;;;;;;;;;;20.51;35.61;100181.69;5096045;28;19915;-74
2022/10/04 12:32:13;;;;;;;;;;;;;;;20.28;35.70;100186.75;5095408;28;19919;-74
2022/10/04 12:34:52;;;;;;;;;;;;;;;20.31;35.35;100189.00;5089344;28;19933;-74
2022/10/04 12:37:17;;;;;;;;;;;;;;;20.23;34.40;100173.13;5094823;28;19912;-74
2022/10/04 12:39:46;;;;;;;;;;;;;;;20.45;34.20;100182.53;5095306;28;20250;-74
2022/10/04 12:42:14;;;;;;;;;;;;;;;20.49;34.29;100193.69;5112084;28;19970;-74
2022/10/04 12:44:42;;;;;;;;;;;;;;;20.40;34.98;100196.63;5096542;28;19954;-75
2022/10/04 12:47:26;;;;;;;;;;;;;;;20.53;33.93;100184.16;5097137;28;19931;-74
2022/10/04 12:50:16;;;;;;;;;;;;;;;20.45;33.78;100184.41;5096265;28;19916;-75
2022/10/04 12:52:51;;;;;;;;;;;;;;;20.48;34.31;100181.28;5096529;28;19919;-75
2022/10/04 12:55:23;;;;;;;;;;;;;;;20.34;34.61;100189.41;5097329;28;20236;-74
2022/10/04 12:58:04;;;;;;;;;;;;;;;20.36;34.41;100190.00;5096269;28;20002;-74
2022/10/04 13:00:33;;;;;;;;;;;;;;;20.32;34.16;100190.66;5096394;28;20017;-75
2022/10/04 13:02:59;;;;;;;;;;;;;;;20.19;33.75;100196.91;5096161;28;19912;-75
2022/10/04 13:05:47;;;;;;;;;;;;;;;20.04;33.49;100191.81;5097271;28;19924;-74
2022/10/04 13:08:16;;;;;;;;;;;;;;;20.03;33.79;100195.53;5097813;28;19916;-74
2022/10/04 13:11:00;;;;;;;;;;;;;;;20.17;34.61;100196.31;5111687;28;20129;-74
2022/10/04 13:13:43;;;;;;;;;;;;;;;20.29;33.94;100201.84;5097776;28;20429;-74
2022/10/04 13:16:21;;;;;;;;;;;;;;;20.32;33.99;100196.84;5100173;28;19931;-74
2022/10/04 13:18:58;;;;;;;;;;;;;;;20.35;34.01;100206.34;5100400;28;19926;-74
2022/10/04 13:21:39;;;;;;;;;;;;;;;20.37;34.47;100204.28;5116030;28;19920;-74
2022/10/04 13:24:10;;;;;;;;;;;;;;;20.32;34.51;100207.63;5099589;28;19958;-74
2022/10/04 13:26:35;;;;;;;;;;;;;;;20.24;34.78;100210.53;5100181;28;19969;-74